Station Historical Data
Daily Summary for October 8, 2017 Units:  English    Metric   Both
« Previous Day
Next Day »
Daily Weekly Monthly Yearly Custom
  High: Low: Average:
Temperature: 74.0 °F 69.8 °F 72.7 °F
Dew Point: 71.7 °F 67.7 °F 70.6 °F
Humidity: 94% 87% 93%
Wind Speed: 20.0mph 6.0mph 12mph
Wind Gust: 37.0mph - -
Wind- - SE
Pressure: 29.96 in 29.69 in -
Precipitation: 4.34 in    
Historical Graphs
 
 
Tabular Data for October 8, 2017
Time Temperature Dew Point Pressure Wind Wind Speed Wind Gust Humidity Rainfall Rate (Hourly) Conditions
00:00 74.0 °F 69.9 °F 29.96 in East 8.0 mph 8.0 mph 87% 0.00 in OVC
00:05 74.0 °F 69.9 °F 29.96 in East 8.0 mph 8.0 mph 87% 0.00 in OVC
00:10 73.8 °F 70.0 °F 29.96 in East 8.0 mph 8.0 mph 88% 0.00 in OVC
00:15 73.7 °F 69.9 °F 29.96 in East 8.0 mph 8.0 mph 88% 0.00 in -RA
00:20 73.6 °F 70.2 °F 29.96 in East 8.0 mph 8.0 mph 89% 0.00 in -RA
00:25 73.5 °F 70.1 °F 29.96 in East 8.0 mph 8.0 mph 89% 0.00 in -RA
00:30 73.3 °F 69.9 °F 29.95 in East 8.0 mph 8.0 mph 89% 0.00 in -RA
00:40 73.2 °F 70.1 °F 29.95 in East 8.0 mph 8.0 mph 90% 0.00 in -RA
00:45 73.1 °F 70.0 °F 29.95 in East 7.0 mph 8.0 mph 90% 0.00 in OVC
00:50 73.0 °F 69.9 °F 29.95 in East 7.0 mph 7.0 mph 90% 0.00 in OVC
00:55 73.0 °F 69.9 °F 29.95 in East 7.0 mph 7.0 mph 90% 0.00 in OVC
01:00 73.0 °F 69.9 °F 29.94 in East 7.0 mph 7.0 mph 90% 0.00 in OVC
01:10 73.0 °F 70.2 °F 29.94 in East 7.0 mph 7.0 mph 91% 0.00 in OVC
01:15 73.0 °F 70.2 °F 29.94 in East 7.0 mph 7.0 mph 91% 0.00 in -RA
01:20 72.9 °F 70.1 °F 29.93 in East 7.0 mph 7.0 mph 91% 0.00 in -RA
01:25 72.8 °F 70.0 °F 29.93 in East 8.0 mph 8.0 mph 91% 0.00 in OVC
01:30 72.7 °F 70.0 °F 29.93 in East 8.0 mph 8.0 mph 91% 0.00 in OVC
01:35 72.7 °F 69.9 °F 29.92 in East 8.0 mph 8.0 mph 91% 0.00 in OVC
01:40 72.7 °F 70.2 °F 29.92 in East 8.0 mph 8.0 mph 92% 0.00 in OVC
01:45 72.7 °F 70.2 °F 29.92 in East 8.0 mph 8.0 mph 92% 0.00 in OVC
01:50 72.6 °F 70.1 °F 29.92 in East 8.0 mph 8.0 mph 92% 0.00 in OVC
01:55 72.6 °F 70.1 °F 29.91 in East 7.0 mph 8.0 mph 92% 0.00 in OVC
02:05 72.6 °F 70.1 °F 29.91 in East 7.0 mph 7.0 mph 92% 0.00 in OVC
02:10 72.6 °F 70.1 °F 29.91 in East 7.0 mph 7.0 mph 92% 0.00 in OVC
02:15 72.6 °F 70.1 °F 29.91 in East 9.0 mph 9.0 mph 92% 0.00 in OVC
02:20 72.6 °F 70.1 °F 29.91 in East 9.0 mph 9.0 mph 92% 0.00 in OVC
02:25 72.6 °F 70.1 °F 29.91 in East 7.0 mph 9.0 mph 92% 0.00 in OVC
02:30 72.6 °F 70.1 °F 29.91 in East 7.0 mph 7.0 mph 92% 0.00 in OVC
02:35 72.6 °F 70.1 °F 29.91 in East 7.0 mph 7.0 mph 92% 0.00 in OVC
02:50 72.6 °F 70.2 °F 29.91 in East 6.0 mph 6.0 mph 92% 0.00 in -DZ
02:55 72.7 °F 70.2 °F 29.91 in East 6.0 mph 6.0 mph 92% 0.00 in -DZ
03:00 72.6 °F 70.1 °F 29.90 in East 6.0 mph 6.0 mph 92% 0.00 in -DZ
03:05 72.6 °F 70.1 °F 29.90 in East 6.0 mph 6.0 mph 92% 0.00 in -DZ
03:10 72.6 °F 70.1 °F 29.90 in East 6.0 mph 6.0 mph 92% 0.00 in -DZ
03:15 72.6 °F 70.1 °F 29.90 in East 6.0 mph 6.0 mph 92% 0.00 in -RA
03:20 72.6 °F 70.1 °F 29.90 in East 6.0 mph 6.0 mph 92% 0.00 in -RA
03:25 72.6 °F 70.1 °F 29.90 in East 6.0 mph 6.0 mph 92% 0.00 in -RA
03:30 72.6 °F 70.5 °F 29.90 in East 6.0 mph 6.0 mph 93% 0.00 in -RA
03:40 72.6 °F 70.5 °F 29.90 in East 6.0 mph 6.0 mph 93% 0.00 in -RA
03:45 72.6 °F 70.5 °F 29.90 in East 7.0 mph 7.0 mph 93% 0.00 in OVC
03:50 72.7 °F 70.6 °F 29.89 in East 7.0 mph 7.0 mph 93% 0.00 in OVC
03:55 72.7 °F 70.6 °F 29.89 in East 7.0 mph 7.0 mph 93% 0.00 in OVC
04:00 72.7 °F 70.6 °F 29.89 in East 7.0 mph 7.0 mph 93% 0.00 in OVC
04:05 72.7 °F 70.6 °F 29.89 in East 7.0 mph 7.0 mph 93% 0.00 in OVC
04:10 72.8 °F 70.6 °F 29.89 in East 7.0 mph 7.0 mph 93% 0.00 in OVC
04:20 72.8 °F 70.7 °F 29.88 in East 9.0 mph 9.0 mph 93% 0.00 in -DZ
04:40 72.9 °F 70.8 °F 29.87 in ESE 9.0 mph 9.0 mph 93% 0.00 in -DZ
04:45 72.9 °F 70.8 °F 29.87 in ESE 9.0 mph 9.0 mph 93% 0.01 in -DZ
04:50 73.0 °F 70.9 °F 29.87 in ESE 9.0 mph 9.0 mph 93% 0.00 in -DZ
05:00 73.0 °F 70.9 °F 29.86 in ESE 13.0 mph 13.0 mph 93% 0.00 in -RA
05:05 73.0 °F 70.9 °F 29.87 in ESE 13.0 mph 13.0 mph 93% 0.00 in -RA
05:10 73.1 °F 71.0 °F 29.86 in ESE 13.0 mph 13.0 mph 93% 0.01 in -RA
05:15 73.1 °F 71.0 °F 29.86 in ESE 13.0 mph 13.0 mph 93% 0.00 in -RA
05:20 73.1 °F 71.0 °F 29.86 in ESE 13.0 mph 13.0 mph 93% 0.00 in -RA
05:25 73.1 °F 71.0 °F 29.85 in ESE 12.0 mph 13.0 mph 93% 0.00 in -RA
05:30 73.1 °F 71.0 °F 29.85 in ESE 12.0 mph 12.0 mph 93% 0.01 in -RA
05:40 73.1 °F 71.0 °F 29.85 in ESE 12.0 mph 12.0 mph 93% 0.00 in -RA
05:45 73.1 °F 71.0 °F 29.85 in ESE 12.0 mph 12.0 mph 93% 0.00 in -RA
05:50 73.1 °F 71.0 °F 29.85 in ESE 12.0 mph 12.0 mph 93% 0.00 in -RA
05:55 73.2 °F 71.0 °F 29.85 in ESE 12.0 mph 12.0 mph 93% 0.00 in -DZ
06:00 73.2 °F 71.1 °F 29.84 in East 12.0 mph 12.0 mph 93% 0.01 in -DZ
06:05 73.2 °F 71.1 °F 29.84 in East 12.0 mph 12.0 mph 93% 0.00 in -DZ
06:10 73.2 °F 71.1 °F 29.84 in East 12.0 mph 12.0 mph 93% 0.00 in -DZ
06:15 73.2 °F 71.1 °F 29.84 in East 9.0 mph 12.0 mph 93% 0.00 in -RA
06:20 73.2 °F 71.1 °F 29.84 in East 9.0 mph 9.0 mph 93% 0.00 in -RA
06:30 73.3 °F 71.1 °F 29.84 in East 9.0 mph 9.0 mph 93% 0.00 in -RA
06:40 73.3 °F 71.2 °F 29.84 in East 9.0 mph 9.0 mph 93% 0.00 in -RA
06:45 73.3 °F 71.2 °F 29.84 in East 9.0 mph 9.0 mph 93% 0.00 in -RA
06:50 73.3 °F 71.2 °F 29.84 in East 9.0 mph 9.0 mph 93% 0.00 in -RA
06:55 73.3 °F 71.2 °F 29.84 in East 10.0 mph 10.0 mph 93% 0.00 in -DZ
07:00 73.3 °F 71.2 °F 29.84 in East 10.0 mph 10.0 mph 93% 0.01 in -DZ
07:05 73.3 °F 71.2 °F 29.83 in East 10.0 mph 10.0 mph 93% 0.01 in -DZ
07:15 73.3 °F 71.5 °F 29.83 in East 10.0 mph 10.0 mph 94% 0.00 in -RA
07:20 73.4 °F 71.6 °F 29.83 in East 10.0 mph 10.0 mph 94% 0.00 in -RA
07:25 73.4 °F 71.6 °F 29.83 in East 10.0 mph 10.0 mph 94% 0.00 in -RA
07:30 73.4 °F 71.6 °F 29.83 in East 10.0 mph 10.0 mph 94% 0.00 in -RA
07:35 73.4 °F 71.6 °F 29.83 in East 10.0 mph 10.0 mph 94% 0.01 in -RA
07:40 73.5 °F 71.6 °F 29.83 in East 10.0 mph 10.0 mph 94% 0.00 in -RA
07:45 73.5 °F 71.7 °F 29.83 in ESE 13.0 mph 13.0 mph 94% 0.01 in -RA
07:50 73.5 °F 71.7 °F 29.83 in ESE 13.0 mph 13.0 mph 94% 0.04 in -RA
07:55 73.5 °F 71.7 °F 29.83 in ESE 12.0 mph 13.0 mph 94% 0.03 in -RA
08:00 73.5 °F 71.7 °F 29.84 in ESE 12.0 mph 12.0 mph 94% 0.00 in -RA
08:05 73.5 °F 71.7 °F 29.84 in ESE 12.0 mph 12.0 mph 94% 0.01 in -RA
08:10 73.5 °F 71.7 °F 29.84 in ESE 12.0 mph 12.0 mph 94% 0.01 in -RA
08:15 73.5 °F 71.7 °F 29.84 in ESE 14.0 mph 14.0 mph 94% 0.00 in -RA
08:20 73.5 °F 71.7 °F 29.84 in ESE 14.0 mph 14.0 mph 94% 0.00 in -RA
08:30 73.5 °F 71.7 °F 29.84 in ESE 14.0 mph 14.0 mph 94% 0.01 in -RA
08:35 73.5 °F 71.7 °F 29.84 in ESE 14.0 mph 14.0 mph 94% 0.00 in -RA
08:40 73.5 °F 71.7 °F 29.84 in ESE 14.0 mph 14.0 mph 94% 0.00 in -RA
08:45 73.4 °F 71.6 °F 29.84 in ESE 13.0 mph 14.0 mph 94% 0.01 in -RA
08:50 73.4 °F 71.6 °F 29.84 in ESE 13.0 mph 13.0 mph 94% 0.00 in -RA
08:55 73.4 °F 71.6 °F 29.84 in ESE 14.0 mph 14.0 mph 94% 0.00 in -DZ
09:00 73.4 °F 71.6 °F 29.84 in ESE 14.0 mph 14.0 mph 94% 0.00 in -DZ
09:05 73.4 °F 71.6 °F 29.84 in ESE 14.0 mph 14.0 mph 94% 0.00 in -DZ
09:10 73.4 °F 71.6 °F 29.84 in ESE 14.0 mph 14.0 mph 94% 0.01 in -DZ
09:15 73.4 °F 71.6 °F 29.84 in ESE 15.0 mph 15.0 mph 94% 0.00 in -RA
09:20 73.4 °F 71.6 °F 29.84 in ESE 15.0 mph 15.0 mph 94% 0.00 in -RA
09:30 73.4 °F 71.6 °F 29.84 in ESE 15.0 mph 15.0 mph 94% 0.01 in -RA
09:35 73.4 °F 71.6 °F 29.84 in ESE 15.0 mph 15.0 mph 94% 0.00 in -RA
09:45 73.4 °F 71.6 °F 29.83 in ESE 15.0 mph 15.0 mph 94% 0.00 in -RA
09:50 73.4 °F 71.6 °F 29.83 in ESE 15.0 mph 15.0 mph 94% 0.00 in -RA
09:55 73.4 °F 71.6 °F 29.83 in ESE 15.0 mph 15.0 mph 94% 0.01 in -RA
10:05 73.4 °F 71.6 °F 29.83 in ESE 15.0 mph 15.0 mph 94% 0.02 in -RA
10:10 73.4 °F 71.6 °F 29.83 in ESE 15.0 mph 15.0 mph 94% 0.05 in -RA
10:15 73.4 °F 71.6 °F 29.83 in ESE 13.0 mph 15.0 mph 94% 0.11 in RA
10:20 73.4 °F 71.6 °F 29.82 in ESE 13.0 mph 13.0 mph 94% 0.03 in RA
10:25 73.4 °F 71.6 °F 29.82 in ESE 13.0 mph 13.0 mph 94% 0.02 in -RA
10:30 73.5 °F 71.6 °F 29.82 in ESE 13.0 mph 13.0 mph 94% 0.03 in -RA
10:35 73.5 °F 71.7 °F 29.82 in ESE 13.0 mph 13.0 mph 94% 0.05 in -RA
10:40 73.5 °F 71.7 °F 29.83 in ESE 13.0 mph 13.0 mph 94% 0.21 in -RA
10:45 73.4 °F 71.6 °F 29.83 in SE 17.0 mph 37.0 mph 94% 0.48 in -RA
10:50 73.1 °F 71.3 °F 29.83 in SSE 17.0 mph 37.0 mph 94% 0.45 in -RA
10:55 72.4 °F 70.2 °F 29.83 in SSE 9.0 mph 37.0 mph 93% 0.50 in -RA
11:00 71.8 °F 69.7 °F 29.82 in SSE 9.0 mph 29.0 mph 93% 0.41 in -RA
11:05 71.9 °F 70.1 °F 29.82 in SSE 9.0 mph 29.0 mph 94% 0.03 in -RA
11:10 72.0 °F 70.2 °F 29.83 in SSE 9.0 mph 29.0 mph 94% 0.01 in -RA
11:15 72.2 °F 70.4 °F 29.83 in SSE 13.0 mph 29.0 mph 94% 0.02 in -RA
11:20 72.3 °F 70.5 °F 29.83 in SSE 13.0 mph 24.0 mph 94% 0.02 in -RA
11:25 72.4 °F 70.6 °F 29.83 in SSE 13.0 mph 24.0 mph 94% 0.03 in -RA
11:30 72.5 °F 70.7 °F 29.83 in SSE 13.0 mph 24.0 mph 94% 0.03 in -RA
11:35 72.6 °F 70.8 °F 29.83 in SSE 13.0 mph 24.0 mph 94% 0.02 in -RA
11:40 72.7 °F 70.9 °F 29.83 in SSE 13.0 mph 24.0 mph 94% 0.02 in -RA
11:45 72.8 °F 71.0 °F 29.83 in SSE 13.0 mph 24.0 mph 94% 0.01 in -RA
11:50 72.8 °F 71.0 °F 29.83 in SSE 13.0 mph 24.0 mph 94% 0.01 in -RA
11:55 72.7 °F 70.9 °F 29.83 in SSE 13.0 mph 24.0 mph 94% 0.02 in -RA
12:00 72.7 °F 70.9 °F 29.83 in SSE 13.0 mph 24.0 mph 94% 0.02 in -RA
12:05 72.7 °F 70.9 °F 29.83 in SSE 13.0 mph 24.0 mph 94% 0.02 in -RA
12:10 72.7 °F 70.8 °F 29.82 in SSE 13.0 mph 24.0 mph 94% 0.01 in -RA
12:15 72.6 °F 70.8 °F 29.82 in SE 15.0 mph 32.0 mph 94% 0.02 in -RA
12:20 72.5 °F 70.7 °F 29.82 in SE 15.0 mph 32.0 mph 94% 0.01 in -RA
12:25 72.3 °F 70.5 °F 29.81 in SE 15.0 mph 32.0 mph 94% 0.01 in -RA
12:30 72.1 °F 70.0 °F 29.81 in SE 15.0 mph 32.0 mph 93% 0.01 in -RA
12:35 72.0 °F 69.9 °F 29.81 in SE 15.0 mph 32.0 mph 93% 0.01 in -RA
12:40 72.1 °F 70.3 °F 29.82 in SE 15.0 mph 32.0 mph 94% 0.01 in -RA
12:45 72.2 °F 70.4 °F 29.82 in SE 15.0 mph 32.0 mph 94% 0.01 in -RA
12:50 72.2 °F 70.4 °F 29.81 in SE 15.0 mph 32.0 mph 94% 0.01 in -RA
12:55 72.3 °F 70.5 °F 29.81 in SE 16.0 mph 32.0 mph 94% 0.00 in -RA
13:05 72.6 °F 70.8 °F 29.81 in SE 16.0 mph 16.0 mph 94% 0.00 in -RA
13:10 72.7 °F 70.9 °F 29.80 in SE 16.0 mph 16.0 mph 94% 0.00 in -RA
13:20 72.6 °F 70.8 °F 29.80 in SE 14.0 mph 25.0 mph 94% 0.00 in -RA
13:25 72.6 °F 70.8 °F 29.80 in SE 14.0 mph 28.0 mph 94% 0.00 in -RA
13:30 72.6 °F 70.4 °F 29.79 in SSE 14.0 mph 28.0 mph 93% 0.00 in -RA
13:40 72.5 °F 70.4 °F 29.79 in SSE 14.0 mph 28.0 mph 93% 0.00 in -RA
13:45 72.5 °F 70.4 °F 29.79 in SE 15.0 mph 30.0 mph 93% 0.01 in -RA
13:50 72.3 °F 70.2 °F 29.78 in SE 15.0 mph 30.0 mph 93% 0.00 in -RA
13:55 72.0 °F 69.9 °F 29.77 in SE 15.0 mph 30.0 mph 93% 0.00 in -RA
14:00 71.9 °F 69.8 °F 29.77 in SE 15.0 mph 30.0 mph 93% 0.00 in -RA
14:05 71.7 °F 69.3 °F 29.76 in SE 15.0 mph 30.0 mph 92% 0.00 in -RA
14:15 71.2 °F 68.8 °F 29.76 in SE 17.0 mph 30.0 mph 92% 0.01 in -RA
14:20 71.0 °F 68.6 °F 29.76 in SE 17.0 mph 28.0 mph 92% 0.00 in -RA
14:25 70.8 °F 68.4 °F 29.76 in SE 15.0 mph 28.0 mph 92% 0.04 in -RA
14:30 70.6 °F 68.2 °F 29.75 in SE 15.0 mph 28.0 mph 92% 0.02 in -RA
14:35 70.4 °F 68.0 °F 29.75 in SE 15.0 mph 28.0 mph 92% 0.04 in -RA
14:40 70.3 °F 68.2 °F 29.74 in SE 15.0 mph 28.0 mph 93% 0.06 in -RA
14:45 70.1 °F 68.0 °F 29.73 in SE 17.0 mph 28.0 mph 93% 0.05 in RA
14:50 70.0 °F 67.9 °F 29.73 in SE 17.0 mph 17.0 mph 93% 0.02 in OVC
14:55 69.9 °F 67.8 °F 29.73 in SE 16.0 mph 17.0 mph 93% 0.02 in -RA
15:00 69.8 °F 67.7 °F 29.73 in ESE 16.0 mph 16.0 mph 93% 0.08 in -RA
15:05 69.8 °F 67.7 °F 29.72 in ESE 16.0 mph 16.0 mph 93% 0.05 in -RA
15:10 69.8 °F 67.7 °F 29.71 in ESE 16.0 mph 16.0 mph 93% 0.02 in -RA
15:15 69.9 °F 68.1 °F 29.71 in ESE 18.0 mph 18.0 mph 94% 0.04 in RA
15:20 70.1 °F 68.3 °F 29.71 in ESE 18.0 mph 18.0 mph 94% 0.03 in RA
15:25 70.3 °F 68.5 °F 29.70 in ESE 18.0 mph 29.0 mph 94% 0.01 in OVC
15:30 70.5 °F 68.7 °F 29.71 in East 18.0 mph 29.0 mph 94% 0.02 in RA
15:40 70.8 °F 69.0 °F 29.70 in East 18.0 mph 29.0 mph 94% 0.06 in RA
15:45 71.0 °F 69.2 °F 29.70 in East 18.0 mph 29.0 mph 94% 0.07 in RA
15:50 71.1 °F 69.3 °F 29.70 in East 18.0 mph 29.0 mph 94% 0.05 in RA
16:00 71.5 °F 69.7 °F 29.70 in ESE 17.0 mph 17.0 mph 94% 0.04 in RA
16:10 71.7 °F 69.9 °F 29.70 in ESE 17.0 mph 17.0 mph 94% 0.01 in OVC
16:15 71.7 °F 69.9 °F 29.70 in SE 20.0 mph 36.0 mph 94% 0.03 in RA
16:20 71.6 °F 69.8 °F 29.70 in SE 20.0 mph 36.0 mph 94% 0.02 in RA
16:30 71.7 °F 69.9 °F 29.69 in SE 20.0 mph 36.0 mph 94% 0.06 in RA
16:40 72.0 °F 70.2 °F 29.69 in SE 20.0 mph 36.0 mph 94% 0.02 in RA
16:45 72.0 °F 70.2 °F 29.69 in SE 20.0 mph 36.0 mph 94% 0.03 in RA
16:50 72.2 °F 70.4 °F 29.69 in SE 20.0 mph 36.0 mph 94% 0.02 in OVC
16:55 72.3 °F 70.5 °F 29.69 in SE 10.0 mph 36.0 mph 94% 0.01 in -RA
17:05 72.5 °F 70.7 °F 29.69 in SSE 10.0 mph 10.0 mph 94% 0.00 in -RA
17:10 72.6 °F 70.8 °F 29.69 in SSE 10.0 mph 10.0 mph 94% 0.00 in -RA
17:15 72.6 °F 70.8 °F 29.70 in SE 17.0 mph 17.0 mph 94% 0.01 in -RA
17:20 72.7 °F 70.9 °F 29.70 in SE 17.0 mph 17.0 mph 94% 0.00 in -RA
17:25 72.7 °F 70.9 °F 29.70 in SE 14.0 mph 26.0 mph 94% 0.00 in OVC
17:30 72.8 °F 71.0 °F 29.70 in SSE 14.0 mph 26.0 mph 94% 0.00 in OVC
17:40 73.0 °F 71.2 °F 29.70 in SSE 14.0 mph 26.0 mph 94% 0.00 in OVC
17:45 73.1 °F 71.3 °F 29.70 in SSE 14.0 mph 26.0 mph 94% 0.02 in -RA
17:50 73.1 °F 71.3 °F 29.70 in SSE 14.0 mph 14.0 mph 94% 0.02 in -RA
18:00 73.2 °F 71.3 °F 29.70 in SSE 14.0 mph 14.0 mph 94% 0.01 in -RA
18:05 73.2 °F 71.4 °F 29.70 in SSE 14.0 mph 14.0 mph 94% 0.01 in -RA
18:10 73.2 °F 71.4 °F 29.70 in SSE 14.0 mph 14.0 mph 94% 0.01 in -RA
18:15 73.2 °F 71.4 °F 29.71 in SSE 10.0 mph 14.0 mph 94% 0.00 in -RA
18:20 73.2 °F 71.4 °F 29.71 in SSE 10.0 mph 10.0 mph 94% 0.00 in -RA
18:25 73.3 °F 71.5 °F 29.71 in SSE 10.0 mph 24.0 mph 94% 0.00 in OVC
18:30 73.3 °F 71.5 °F 29.72 in South 10.0 mph 24.0 mph 94% 0.00 in OVC
18:40 73.3 °F 71.5 °F 29.72 in South 10.0 mph 24.0 mph 94% 0.00 in OVC
18:45 73.3 °F 71.5 °F 29.72 in South 10.0 mph 24.0 mph 94% 0.00 in OVC
18:50 73.3 °F 71.5 °F 29.72 in South 10.0 mph 24.0 mph 94% 0.00 in OVC
19:00 73.2 °F 71.4 °F 29.72 in South 10.0 mph 24.0 mph 94% 0.00 in OVC
19:05 73.2 °F 71.4 °F 29.72 in South 10.0 mph 24.0 mph 94% 0.00 in OVC
19:10 73.1 °F 71.3 °F 29.72 in South 10.0 mph 24.0 mph 94% 0.00 in OVC
19:15 73.1 °F 71.3 °F 29.73 in SSE 10.0 mph 24.0 mph 94% 0.00 in OVC
19:20 73.1 °F 71.3 °F 29.73 in SSE 10.0 mph 10.0 mph 94% 0.00 in OVC
19:25 73.0 °F 71.2 °F 29.73 in SSE 10.0 mph 10.0 mph 94% 0.00 in OVC
19:30 73.0 °F 71.2 °F 29.73 in SSE 10.0 mph 10.0 mph 94% 0.00 in OVC
19:40 72.9 °F 71.1 °F 29.73 in SSE 10.0 mph 10.0 mph 94% 0.00 in OVC
19:45 72.9 °F 71.1 °F 29.74 in SSE 14.0 mph 25.0 mph 94% 0.00 in OVC
19:50 72.8 °F 71.0 °F 29.74 in SSE 14.0 mph 25.0 mph 94% 0.00 in OVC
19:55 72.8 °F 70.9 °F 29.74 in SSE 14.0 mph 25.0 mph 94% 0.00 in OVC
20:00 72.7 °F 70.9 °F 29.74 in SSE 14.0 mph 25.0 mph 94% 0.00 in OVC
20:05 72.7 °F 70.5 °F 29.75 in SSE 14.0 mph 25.0 mph 93% 0.00 in OVC
20:10 72.6 °F 70.5 °F 29.75 in SSE 14.0 mph 25.0 mph 93% 0.00 in OVC
20:15 72.6 °F 70.5 °F 29.75 in SSE 13.0 mph 25.0 mph 93% 0.00 in OVC
20:20 72.6 °F 70.5 °F 29.75 in South 13.0 mph 23.0 mph 93% 0.00 in OVC
20:25 72.6 °F 70.5 °F 29.75 in South 13.0 mph 23.0 mph 93% 0.00 in OVC
20:30 72.6 °F 70.4 °F 29.75 in South 13.0 mph 23.0 mph 93% 0.00 in OVC
20:40 72.5 °F 70.4 °F 29.75 in South 13.0 mph 23.0 mph 93% 0.00 in OVC
20:45 72.6 °F 70.4 °F 29.75 in South 13.0 mph 23.0 mph 93% 0.00 in OVC
20:50 72.6 °F 70.5 °F 29.76 in South 13.0 mph 23.0 mph 93% 0.00 in OVC
20:55 72.6 °F 70.5 °F 29.76 in South 13.0 mph 23.0 mph 93% 0.00 in OVC
21:00 72.6 °F 70.5 °F 29.76 in South 13.0 mph 23.0 mph 93% 0.00 in OVC
21:05 72.7 °F 70.5 °F 29.76 in South 13.0 mph 23.0 mph 93% 0.00 in OVC
21:10 72.7 °F 70.6 °F 29.76 in South 13.0 mph 23.0 mph 93% 0.00 in OVC
21:15 72.7 °F 70.6 °F 29.76 in SSE 9.0 mph 23.0 mph 93% 0.00 in OVC
21:20 72.7 °F 70.6 °F 29.77 in SSE 9.0 mph 20.0 mph 93% 0.00 in OVC
21:25 72.8 °F 70.6 °F 29.77 in SSE 9.0 mph 20.0 mph 93% 0.00 in OVC
21:30 72.8 °F 70.7 °F 29.77 in SSE 9.0 mph 20.0 mph 93% 0.00 in OVC
21:40 72.8 °F 70.7 °F 29.77 in SSE 9.0 mph 20.0 mph 93% 0.00 in OVC
21:45 72.8 °F 70.7 °F 29.78 in SSE 9.0 mph 20.0 mph 93% 0.00 in OVC
21:50 72.9 °F 70.7 °F 29.78 in SSE 9.0 mph 20.0 mph 93% 0.00 in OVC
21:55 72.9 °F 70.8 °F 29.78 in South 10.0 mph 20.0 mph 93% 0.00 in OVC
22:00 72.9 °F 70.8 °F 29.79 in South 10.0 mph 10.0 mph 93% 0.00 in OVC
22:05 72.9 °F 70.8 °F 29.79 in South 10.0 mph 10.0 mph 93% 0.00 in OVC
22:15 72.9 °F 70.8 °F 29.80 in South 13.0 mph 23.0 mph 93% 0.00 in -DZ
22:20 72.9 °F 70.8 °F 29.80 in South 13.0 mph 23.0 mph 93% 0.00 in -DZ
22:25 73.0 °F 70.8 °F 29.80 in South 13.0 mph 23.0 mph 93% 0.00 in -DZ
22:30 73.0 °F 70.9 °F 29.80 in South 13.0 mph 23.0 mph 93% 0.00 in -DZ
22:40 73.0 °F 70.9 °F 29.81 in South 13.0 mph 23.0 mph 93% 0.00 in -DZ
22:45 73.1 °F 71.0 °F 29.81 in South 13.0 mph 23.0 mph 93% 0.00 in -DZ
22:50 73.1 °F 71.0 °F 29.81 in South 13.0 mph 23.0 mph 93% 0.00 in -DZ
22:55 73.1 °F 71.0 °F 29.81 in South 13.0 mph 23.0 mph 93% 0.00 in -DZ
23:00 73.1 °F 71.0 °F 29.81 in South 13.0 mph 23.0 mph 93% 0.01 in -DZ
23:05 73.1 °F 70.9 °F 29.82 in South 13.0 mph 23.0 mph 93% 0.00 in -DZ
23:10 73.1 °F 71.0 °F 29.82 in South 13.0 mph 23.0 mph 93% 0.01 in -DZ
23:25 73.0 °F 71.2 °F 29.82 in South 13.0 mph 24.0 mph 94% 0.01 in -DZ
23:30 73.0 °F 71.2 °F 29.83 in South 13.0 mph 24.0 mph 94% 0.00 in -DZ
23:40 73.1 °F 71.2 °F 29.83 in South 13.0 mph 24.0 mph 94% 0.01 in -DZ
23:50 73.0 °F 71.2 °F 29.83 in South 8.0 mph 8.0 mph 94% 0.00 in -RA
23:55 73.0 °F 71.2 °F 29.83 in South 8.0 mph 8.0 mph 94% 0.00 in -RA
Piedmont Bend
Compliments of Weather Underground - 3 mb